Gas Grouper — V7TZ2 — position and weather

sailwx.info

Track history (hours):
 
Tides and Currents Weather Stations Pressure Air Temp Water Temp Dewpoint Dewpoint Depression Visibility Wind Speed Wind Dir Waves Ship Positions

Gas Grouper

Last reported at 2017-Jul-20 22:59 UTC. Time now 2017-Jul-21 00:52 UTC.
Position N 40°01' E 025°38'.

Length 174 m; draft 10.4 m.

Type: Ship (hazmat cat D). MMSI: 538003910.

Date/timePositionNaut miles runAvg speedWind from/ knotsBaromVisibWave heightAir tempDewpointWater temp
2017-Jul-20 22:59N 40°01' E 025°38'11 1.1
2017-Jul-20 12:21N 40°06' E 025°25'1313.3
2017-Jul-20 11:23N 40°05' E 025°08'513.7
2017-Jul-20 11:00N 40°04' E 025°02'712.7
2017-Jul-20 10:26N 39°57' E 024°59'6 3.9
2017-Jul-20 08:56N 39°52' E 025°02'11 7.7
2017-Jul-20 07:34N 40°02' E 024°60'213.3
2017-Jul-20 07:24N 40°04' E 025°02'613.3
2017-Jul-20 06:58N 40°05' E 025°09'613.6
2017-Jul-20 06:30N 40°06' E 025°18'1213.2
2017-Jul-20 05:33N 40°02' E 025°33'  
2017-Jul-16 00:43N 39°60' E 025°36'0 0.0
2017-Jul-16 00:19N 39°60' E 025°36'0 0.0
2017-Jul-15 23:01N 39°60' E 025°36'0 0.1
2017-Jul-15 22:58N 39°60' E 025°36'2 0.2
2017-Jul-15 13:19N 40°00' E 025°39'  
2017-Jul-12 04:02N 44°26' E 030°35'213.9
2017-Jul-12 03:55N 44°28' E 030°36'613.9
2017-Jul-12 03:30N 44°33' E 030°38'813.8
2017-Jul-12 02:54N 44°41' E 030°42'513.9
2017-Jul-12 02:30N 44°46' E 030°45'813.8
2017-Jul-12 01:57N 44°53' E 030°49'613.8
2017-Jul-12 01:30N 44°59' E 030°52'714.0
2017-Jul-12 01:01N 45°05' E 030°56'714.1
2017-Jul-12 00:31N 45°12' E 031°00'713.9
2017-Jul-12 00:00N 45°18' E 031°04'1113.5
2017-Jul-11 23:12N 45°29' E 031°05'313.5
2017-Jul-11 23:01N 45°32' E 031°05'713.5
2017-Jul-11 22:30N 45°38' E 031°05'713.4
2017-Jul-11 22:00N 45°45' E 031°05'613.1
2017-Jul-11 21:30N 45°52' E 031°05'713.3
2017-Jul-11 21:00N 45°58' E 031°05'613.0
2017-Jul-11 20:31N 46°05' E 031°05'713.4
2017-Jul-11 20:01N 46°10' E 030°60'713.0
2017-Jul-11 19:29N 46°15' E 030°54'712.6
2017-Jul-11 18:56N 46°22' E 030°56'613.0
2017-Jul-11 18:31N 46°28' E 030°55'611.1
2017-Jul-11 18:01N 46°33' E 030°58'4 7.5
2017-Jul-11 17:31N 46°36' E 031°01'1 1.8
2017-Jul-11 17:00N 46°37' E 031°01'0 0.0
2017-Jul-11 05:00N 46°37' E 031°01'0 0.0
2017-Jul-11 04:30N 46°37' E 031°01'0 0.0
2017-Jul-11 03:57N 46°37' E 031°01'0 0.0
2017-Jul-11 03:27N 46°37' E 031°01'0 0.0
2017-Jul-11 02:57N 46°37' E 031°01'0 0.0
2017-Jul-11 02:24N 46°37' E 031°01'0 0.0
2017-Jul-11 01:54N 46°37' E 031°01'0 0.0
2017-Jul-11 01:27N 46°37' E 031°01'0 0.0
2017-Jul-11 00:57N 46°37' E 031°01'0 0.0
2017-Jul-11 00:27N 46°37' E 031°01'0 0.0
2017-Jul-11 00:00N 46°37' E 031°01'0 0.0
2017-Jul-10 23:30N 46°37' E 031°01'0 0.0
2017-Jul-10 23:00N 46°37' E 031°01'  
Track history (hours):
 
Tides and Currents Weather Stations Pressure Air Temp Water Temp Dewpoint Dewpoint Depression Visibility Wind Speed Wind Dir Waves Ship Positions

Gas Grouper

Last reported at 2017-Jul-20 22:59 UTC. Time now 2017-Jul-21 00:52 UTC.
Position N 40°01' E 025°38'.

Length 174 m; draft 10.4 m.

Type: Ship (hazmat cat D). MMSI: 538003910.

Date/timePositionNaut miles runAvg speedWind from/ knotsBaromVisibWave heightAir tempDewpointWater temp
2017-Jul-20 22:59N 40°01' E 025°38'11 1.1
2017-Jul-20 12:21N 40°06' E 025°25'1313.3
2017-Jul-20 11:23N 40°05' E 025°08'513.7
2017-Jul-20 11:00N 40°04' E 025°02'712.7
2017-Jul-20 10:26N 39°57' E 024°59'6 3.9
2017-Jul-20 08:56N 39°52' E 025°02'11 7.7
2017-Jul-20 07:34N 40°02' E 024°60'213.3
2017-Jul-20 07:24N 40°04' E 025°02'613.3
2017-Jul-20 06:58N 40°05' E 025°09'613.6
2017-Jul-20 06:30N 40°06' E 025°18'1213.2
2017-Jul-20 05:33N 40°02' E 025°33'  
2017-Jul-16 00:43N 39°60' E 025°36'0 0.0
2017-Jul-16 00:19N 39°60' E 025°36'0 0.0
2017-Jul-15 23:01N 39°60' E 025°36'0 0.1
2017-Jul-15 22:58N 39°60' E 025°36'2 0.2
2017-Jul-15 13:19N 40°00' E 025°39'  
2017-Jul-12 04:02N 44°26' E 030°35'213.9
2017-Jul-12 03:55N 44°28' E 030°36'613.9
2017-Jul-12 03:30N 44°33' E 030°38'813.8
2017-Jul-12 02:54N 44°41' E 030°42'513.9
2017-Jul-12 02:30N 44°46' E 030°45'813.8
2017-Jul-12 01:57N 44°53' E 030°49'613.8
2017-Jul-12 01:30N 44°59' E 030°52'714.0
2017-Jul-12 01:01N 45°05' E 030°56'714.1
2017-Jul-12 00:31N 45°12' E 031°00'713.9
2017-Jul-12 00:00N 45°18' E 031°04'1113.5
2017-Jul-11 23:12N 45°29' E 031°05'313.5
2017-Jul-11 23:01N 45°32' E 031°05'713.5
2017-Jul-11 22:30N 45°38' E 031°05'713.4
2017-Jul-11 22:00N 45°45' E 031°05'613.1
2017-Jul-11 21:30N 45°52' E 031°05'713.3
2017-Jul-11 21:00N 45°58' E 031°05'613.0
2017-Jul-11 20:31N 46°05' E 031°05'713.4
2017-Jul-11 20:01N 46°10' E 030°60'713.0
2017-Jul-11 19:29N 46°15' E 030°54'712.6
2017-Jul-11 18:56N 46°22' E 030°56'613.0
2017-Jul-11 18:31N 46°28' E 030°55'611.1
2017-Jul-11 18:01N 46°33' E 030°58'4 7.5
2017-Jul-11 17:31N 46°36' E 031°01'1 1.8
2017-Jul-11 17:00N 46°37' E 031°01'0 0.0
2017-Jul-11 05:00N 46°37' E 031°01'0 0.0
2017-Jul-11 04:30N 46°37' E 031°01'0 0.0
2017-Jul-11 03:57N 46°37' E 031°01'0 0.0
2017-Jul-11 03:27N 46°37' E 031°01'0 0.0
2017-Jul-11 02:57N 46°37' E 031°01'0 0.0
2017-Jul-11 02:24N 46°37' E 031°01'0 0.0
2017-Jul-11 01:54N 46°37' E 031°01'0 0.0
2017-Jul-11 01:27N 46°37' E 031°01'0 0.0
2017-Jul-11 00:57N 46°37' E 031°01'0 0.0
2017-Jul-11 00:27N 46°37' E 031°01'0 0.0
2017-Jul-11 00:00N 46°37' E 031°01'0 0.0
2017-Jul-10 23:30N 46°37' E 031°01'0 0.0
2017-Jul-10 23:00N 46°37' E 031°01'  

Dump ship's entire track history